Time;durP1;ratioP1;P1;durP2;ratioP2;P2;SDS_P1;SDS_P2;PMS_P1;PMS_P2;Temp;Humidity;BMP_temperature;BMP_pressure;BME280_temperature;BME280_humidity;BME280_pressure;Samples;Min_cycle;Max_cycle;Signal;HPM_P1;HPM_P2
2022/01/24 00:01:28;;;;;;;;;0.80;0.00;;;;;5.95;87.01;101701.06;5128391;27;8846;-62
2022/01/24 00:03:58;;;;;;;;;0.60;0.60;;;;;5.93;86.64;101695.81;5129507;27;8862;-62
2022/01/24 00:06:26;;;;;;;;;0.20;0.00;;;;;5.94;86.89;101689.66;5129085;27;8877;-62
2022/01/24 00:08:54;;;;;;;;;0.00;0.00;;;;;5.94;86.74;101691.41;5128877;27;8864;-62
2022/01/24 00:11:26;;;;;;;;;0.00;0.00;;;;;5.94;86.79;101697.59;5128959;27;8924;-63
2022/01/24 00:14:39;;;;;;;;;1.00;1.00;;;;;5.94;87.11;101694.06;5129091;27;8850;-63
2022/01/24 00:17:06;;;;;;;;;0.60;0.60;;;;;5.94;86.80;101688.78;5128376;27;8841;-63
2022/01/24 00:27:53;;;;;;;;;0.60;0.60;;;;;5.91;87.29;101697.66;5107218;28;9541;-63
2022/01/24 00:30:21;;;;;;;;;0.20;0.20;;;;;5.90;86.80;101692.41;5108070;28;8867;-63
2022/01/24 00:32:49;;;;;;;;;0.00;0.00;;;;;5.88;86.39;101694.25;5106475;28;8989;-63
2022/01/24 00:35:17;;;;;;;;;2.60;1.00;;;;;5.85;86.73;101682.00;5107780;28;8994;-63
2022/01/24 00:37:45;;;;;;;;;1.00;1.00;;;;;5.84;86.74;101684.72;5106728;28;9493;-62
2022/01/24 00:40:12;;;;;;;;;0.00;0.00;;;;;5.84;86.60;101692.66;5105682;28;9023;-63
2022/01/24 00:42:50;;;;;;;;;0.00;0.00;;;;;5.84;86.63;101692.66;5107201;28;8839;-63
2022/01/24 00:45:28;;;;;;;;;0.80;0.80;;;;;5.85;86.74;101697.00;5106503;28;8970;-66
2022/01/24 00:48:20;;;;;;;;;0.60;0.60;;;;;5.85;86.84;101699.66;5107311;28;8868;-62
2022/01/24 00:53:50;;;;;;;;;0.60;0.60;;;;;5.84;86.68;101696.13;5127595;27;8854;-63
2022/01/24 00:56:17;;;;;;;;;0.00;0.00;;;;;5.84;86.76;101698.78;5127626;27;8979;-63
2022/01/24 00:58:45;;;;;;;;;0.20;0.20;;;;;5.84;86.57;101696.13;5128108;27;8852;-60
2022/01/24 01:01:14;;;;;;;;;0.80;0.20;;;;;5.86;86.99;101706.66;5127707;27;8854;-61
2022/01/24 01:03:42;;;;;;;;;1.00;1.00;;;;;5.85;86.78;101697.84;5128738;27;8833;-62
2022/01/24 01:06:11;;;;;;;;;0.00;0.00;;;;;5.86;86.65;101702.22;5127991;27;8842;-63
2022/01/24 01:19:39;;;;;;;;;0.20;0.20;;;;;5.87;87.03;101697.81;5125754;27;8868;-60
2022/01/24 01:22:07;;;;;;;;;0.00;0.00;;;;;5.86;86.67;101704.88;5107593;28;8959;-61
2022/01/24 01:24:40;;;;;;;;;0.00;0.00;;;;;5.86;86.73;101696.94;5106539;28;8982;-63
2022/01/24 01:27:13;;;;;;;;;0.60;0.60;;;;;5.87;86.62;101701.34;5107922;28;8932;-64
2022/01/24 01:29:56;;;;;;;;;0.80;0.80;;;;;5.86;86.79;101698.72;5108632;28;8852;-63
2022/01/24 01:32:41;;;;;;;;;0.00;0.00;;;;;5.85;87.23;101695.22;5107365;28;8848;-61
2022/01/24 01:35:25;;;;;;;;;0.00;0.00;;;;;5.86;86.73;101698.72;5108145;28;8877;-63
2022/01/24 01:38:20;;;;;;;;;0.00;0.00;;;;;5.84;86.90;101693.50;5107060;28;8970;-63
2022/01/24 01:54:55;;;;;;;;;0.00;0.00;;;;;5.84;86.98;101693.50;5127721;27;8950;-60
2022/01/24 01:57:23;;;;;;;;;0.80;0.60;;;;;5.84;87.00;101693.50;5127733;27;8856;-62
2022/01/24 01:59:51;;;;;;;;;1.00;1.00;;;;;5.84;87.07;101692.66;5130624;27;9469;-61
2022/01/24 02:02:18;;;;;;;;;2.60;2.60;;;;;5.83;86.59;101686.47;5130959;27;8861;-63
2022/01/24 02:04:46;;;;;;;;;0.00;0.00;;;;;5.83;86.73;101690.88;5131803;27;8862;-62
2022/01/24 02:07:14;;;;;;;;;0.80;0.00;;;;;5.84;86.51;101692.66;5130979;27;8849;-63
2022/01/24 02:09:43;;;;;;;;;0.20;0.20;;;;;5.83;86.52;101686.47;5132007;27;8856;-62
2022/01/24 02:12:11;;;;;;;;;0.60;0.00;;;;;5.84;86.44;101682.06;5132425;27;8838;-63
2022/01/24 02:14:45;;;;;;;;;0.00;0.00;;;;;5.84;86.25;101684.72;5132744;27;8825;-62
2022/01/24 02:17:21;;;;;;;;;0.00;0.00;;;;;5.83;86.39;101680.31;5132495;27;8838;-62
2022/01/24 02:20:08;;;;;;;;;0.60;0.00;;;;;5.84;86.76;101676.78;5130704;27;9583;-60
2022/01/24 02:22:43;;;;;;;;;0.00;0.00;;;;;5.82;86.59;101663.59;5111209;28;8852;-61
2022/01/24 02:25:23;;;;;;;;;1.00;0.50;;;;;5.81;87.09;101671.56;5110004;28;8885;-63
2022/01/24 02:27:56;;;;;;;;;0.00;0.00;;;;;5.81;86.69;101677.75;5110791;28;8840;-62
2022/01/24 02:30:48;;;;;;;;;0.00;0.00;;;;;5.80;86.71;101665.44;5110821;28;9780;-63
2022/01/24 02:33:16;;;;;;;;;2.20;2.20;;;;;5.81;86.56;101661.00;5111190;28;9844;-63
2022/01/24 02:35:43;;;;;;;;;0.00;0.00;;;;;5.81;86.79;101659.25;5110547;28;8859;-63
2022/01/24 02:38:13;;;;;;;;;1.00;1.00;;;;;5.81;86.38;101658.34;5110296;28;9768;-62
2022/01/24 02:40:40;;;;;;;;;0.80;0.20;;;;;5.81;86.46;101655.72;5112333;27;8836;-63
2022/01/24 02:48:22;;;;;;;;;0.00;0.00;;;;;5.80;86.57;101639.00;5110404;28;8912;-63
2022/01/24 02:48:52;;;;;;;;;1.00;0.20;;;;;5.81;86.66;101639.84;5110713;28;8844;-63
2022/01/24 02:51:35;;;;;;;;;0.20;0.20;;;;;5.80;86.63;101639.00;5110576;28;8879;-62
2022/01/24 02:54:02;;;;;;;;;1.00;1.00;;;;;5.79;86.71;101633.72;5111068;28;8835;-61
2022/01/24 02:56:30;;;;;;;;;0.00;0.00;;;;;5.79;86.55;101637.28;5110399;28;8874;-63
2022/01/24 02:58:58;;;;;;;;;1.00;0.25;;;;;5.80;86.52;101633.72;5110253;28;8980;-63
2022/01/24 03:01:26;;;;;;;;;0.00;0.00;;;;;5.80;86.93;101628.44;5110532;28;8843;-61
2022/01/24 03:03:54;;;;;;;;;1.00;1.00;;;;;5.81;86.71;101632.81;5108954;28;8856;-63
2022/01/24 03:06:22;;;;;;;;;0.20;0.00;;;;;5.80;86.44;101623.16;5110279;28;8853;-63
2022/01/24 03:08:49;;;;;;;;;1.00;1.00;;;;;5.80;86.44;101617.00;5110109;27;9578;-63
2022/01/24 03:11:20;;;;;;;;;2.40;1.80;;;;;5.79;86.66;101621.44;5128824;27;8849;-62
2022/01/24 03:13:48;;;;;;;;;1.00;0.40;;;;;5.79;86.50;101623.16;5130458;27;8838;-63
2022/01/24 03:16:15;;;;;;;;;0.20;0.00;;;;;5.78;86.63;101621.44;5129355;27;8833;-63
2022/01/24 03:18:43;;;;;;;;;0.60;0.40;;;;;5.79;86.85;101620.53;5130666;27;8838;-62
2022/01/24 03:21:11;;;;;;;;;1.00;1.00;;;;;5.80;86.91;101622.28;5128597;27;8867;-62
2022/01/24 03:23:38;;;;;;;;;0.00;0.00;;;;;5.79;86.67;101624.06;5128444;27;8845;-63
2022/01/24 03:26:06;;;;;;;;;1.00;0.20;;;;;5.79;86.35;101625.81;5130204;27;8838;-63
2022/01/24 03:28:34;;;;;;;;;0.20;0.20;;;;;5.79;86.72;101632.00;5130342;27;8854;-63
2022/01/24 03:31:02;;;;;;;;;0.00;0.00;;;;;5.79;86.99;101634.66;5130577;27;8842;-63
2022/01/24 03:33:30;;;;;;;;;0.00;0.00;;;;;5.80;86.57;101638.13;5131676;27;9183;-63
2022/01/24 03:35:58;;;;;;;;;0.00;0.00;;;;;5.81;86.72;101639.84;5129180;27;9000;-63
2022/01/24 03:38:25;;;;;;;;;0.20;0.20;;;;;5.80;87.01;101631.09;5130684;27;8833;-63
2022/01/24 03:40:53;;;;;;;;;0.00;0.00;;;;;5.80;86.40;101639.00;5109662;27;8990;-63
2022/01/24 03:43:21;;;;;;;;;0.40;0.20;;;;;5.79;86.50;101632.00;5107768;28;8882;-62
2022/01/24 03:46:09;;;;;;;;;1.00;1.00;;;;;5.78;86.68;101635.50;5105537;28;8836;-63
2022/01/24 03:48:41;;;;;;;;;0.80;0.80;;;;;5.78;86.64;101624.09;5108828;28;8871;-63
2022/01/24 03:51:09;;;;;;;;;1.00;1.00;;;;;5.77;86.72;101625.00;5109686;28;8839;-63
2022/01/24 03:53:36;;;;;;;;;1.00;1.00;;;;;5.76;86.73;101623.28;5109511;28;8962;-63
2022/01/24 03:56:04;;;;;;;;;0.00;0.00;;;;;5.76;86.72;101629.41;5108295;28;8832;-62
2022/01/24 03:58:32;;;;;;;;;1.00;0.80;;;;;5.77;86.50;101630.28;5110273;28;8982;-63
2022/01/24 04:01:00;;;;;;;;;0.60;0.60;;;;;5.77;86.61;101622.34;5108566;28;9637;-62
2022/01/24 04:03:27;;;;;;;;;0.25;0.00;;;;;5.77;86.75;101622.34;5109060;28;8843;-63
2022/01/24 04:05:55;;;;;;;;;1.40;0.80;;;;;5.77;86.67;101630.28;5108419;28;8952;-62
2022/01/24 04:08:23;;;;;;;;;1.80;1.00;;;;;5.78;86.76;101626.72;5109243;28;8990;-61
2022/01/24 04:10:54;;;;;;;;;1.00;1.00;;;;;5.78;87.12;101621.44;5126211;27;8907;-63
2022/01/24 04:13:27;;;;;;;;;0.00;0.00;;;;;5.79;86.69;101620.53;5130110;27;8849;-61
2022/01/24 04:16:11;;;;;;;;;1.00;1.00;;;;;5.77;86.70;101620.56;5128497;27;8932;-63
2022/01/24 04:18:47;;;;;;;;;0.00;0.00;;;;;5.76;86.58;101613.56;5128137;27;8960;-63
2022/01/24 04:21:20;;;;;;;;;0.60;0.40;;;;;5.77;86.74;101612.63;5129040;27;8856;-63
2022/01/24 04:23:52;;;;;;;;;1.00;1.00;;;;;5.77;86.29;101620.56;5127991;27;8992;-61
2022/01/24 04:26:20;;;;;;;;;1.00;1.00;;;;;5.76;86.67;101618.00;5128578;27;8849;-63
2022/01/24 04:28:48;;;;;;;;;1.40;1.00;;;;;5.77;86.63;101611.78;5128919;27;8930;-63
2022/01/24 04:31:16;;;;;;;;;0.80;0.80;;;;;5.77;86.17;101611.78;5128241;27;8845;-61
2022/01/24 04:33:44;;;;;;;;;0.80;0.80;;;;;5.76;86.57;101610.06;5128461;27;9568;-63
2022/01/24 04:36:12;;;;;;;;;0.00;0.00;;;;;5.75;86.57;101611.81;5128800;27;8830;-63
2022/01/24 04:38:39;;;;;;;;;0.00;0.00;;;;;5.75;86.84;101614.47;5126972;27;8837;-61
2022/01/24 04:41:15;;;;;;;;;3.00;3.00;;;;;5.74;86.16;101612.75;5107170;28;8844;-63
2022/01/24 04:43:53;;;;;;;;;2.60;1.40;;;;;5.74;86.90;101617.16;5106957;28;8956;-64
2022/01/24 04:46:44;;;;;;;;;0.80;0.80;;;;;5.74;86.85;101612.75;5107895;28;8958;-64
2022/01/24 04:52:12;;;;;;;;;1.00;1.00;;;;;5.75;86.73;101610.94;5107300;28;8848;-63
2022/01/24 04:54:42;;;;;;;;;1.00;1.00;;;;;5.76;86.46;101610.91;5106614;28;8919;-63
2022/01/24 04:57:09;;;;;;;;;0.00;0.00;;;;;5.75;86.66;101616.22;5107982;28;8839;-62
2022/01/24 04:59:37;;;;;;;;;0.00;0.00;;;;;5.76;86.58;101623.28;5107165;28;8832;-63
2022/01/24 05:02:05;;;;;;;;;1.00;1.00;;;;;5.76;86.63;101626.78;5108442;28;8844;-63
2022/01/24 05:04:33;;;;;;;;;1.00;1.00;;;;;5.78;86.73;101635.50;5108076;28;8859;-63
2022/01/24 05:07:01;;;;;;;;;3.00;1.00;;;;;5.77;86.58;101620.56;5105260;28;8851;-63
2022/01/24 05:09:33;;;;;;;;;1.00;1.00;;;;;5.77;87.02;101617.06;5112970;27;8926;-63
2022/01/24 05:12:06;;;;;;;;;1.00;1.00;;;;;5.76;86.31;101620.63;5126800;27;8857;-63
2022/01/24 05:25:35;;;;;;;;;3.00;3.00;;;;;5.74;86.46;101623.31;5128300;27;8841;-64
2022/01/24 05:28:02;;;;;;;;;3.00;3.00;;;;;5.74;86.37;101619.78;5125593;27;8846;-63
2022/01/24 05:30:30;;;;;;;;;1.00;1.00;;;;;5.75;86.52;101622.41;5127070;27;8834;-61
2022/01/24 05:32:58;;;;;;;;;1.00;1.00;;;;;5.75;86.44;101624.16;5126792;27;8826;-63
2022/01/24 05:35:26;;;;;;;;;1.00;1.00;;;;;5.74;86.48;101622.44;5131649;27;8842;-63
2022/01/24 05:37:53;;;;;;;;;0.20;0.00;;;;;5.74;86.40;101617.16;5130834;27;8865;-63
2022/01/24 05:40:21;;;;;;;;;2.20;1.00;;;;;5.74;85.95;101625.09;5114956;27;8913;-65
2022/01/24 05:42:48;;;;;;;;;3.00;3.00;;;;;5.73;86.83;101618.06;5109497;28;8904;-64
2022/01/24 05:45:16;;;;;;;;;0.60;0.60;;;;;5.73;86.21;101624.25;5111043;28;8848;-66
2022/01/24 05:47:44;;;;;;;;;1.80;1.80;;;;;5.70;86.88;101621.69;5109859;28;9917;-63
2022/01/24 05:50:12;;;;;;;;;1.00;1.00;;;;;5.71;86.53;101619.91;5109792;28;8855;-64
2022/01/24 05:52:39;;;;;;;;;1.40;1.40;;;;;5.70;86.74;101621.69;5110055;28;8860;-64
2022/01/24 05:55:07;;;;;;;;;1.80;1.00;;;;;5.68;86.54;101627.94;5110732;28;8836;-64
2022/01/24 05:57:36;;;;;;;;;1.00;1.00;;;;;5.69;86.65;101622.59;5110612;28;8848;-64
2022/01/24 06:00:04;;;;;;;;;0.80;0.80;;;;;5.68;86.44;101628.81;5109674;28;8851;-63
2022/01/24 06:02:31;;;;;;;;;2.20;2.20;;;;;5.67;86.69;101621.78;5108361;28;8851;-63
2022/01/24 06:04:59;;;;;;;;;0.80;0.80;;;;;5.68;86.53;101628.81;5109067;28;8852;-63
2022/01/24 06:07:27;;;;;;;;;3.00;1.00;;;;;5.68;86.36;101625.31;5116965;27;8833;-62
2022/01/24 06:09:55;;;;;;;;;0.00;0.00;;;;;5.66;86.55;101619.19;5122352;27;8838;-63
2022/01/24 06:12:23;;;;;;;;;0.80;0.80;;;;;5.66;86.39;101624.47;5126718;27;8875;-63
2022/01/24 06:14:54;;;;;;;;;1.00;1.00;;;;;5.65;86.66;101631.56;5125579;27;8857;-62
2022/01/24 06:17:22;;;;;;;;;1.40;1.40;;;;;5.64;86.19;101623.66;5127705;27;8849;-61
2022/01/24 06:19:50;;;;;;;;;2.60;2.60;;;;;5.61;86.51;101629.06;5121941;27;8870;-63
2022/01/24 06:22:17;;;;;;;;;3.00;3.00;;;;;5.60;86.76;101635.22;5122954;27;8842;-63
2022/01/24 06:24:45;;;;;;;;;1.40;1.40;;;;;5.59;86.57;101629.09;5121625;27;8841;-62
2022/01/24 06:27:35;;;;;;;;;1.00;1.00;;;;;5.61;86.37;101642.28;5119917;27;8837;-62
2022/01/24 06:30:03;;;;;;;;;3.00;3.00;;;;;5.61;86.70;101637.00;5120892;27;8846;-61
2022/01/24 06:32:30;;;;;;;;;3.80;2.80;;;;;5.59;86.51;101629.09;5121088;27;8849;-63
2022/01/24 06:34:58;;;;;;;;;2.60;1.40;;;;;5.59;86.62;101628.22;5120317;27;9501;-61
2022/01/24 06:37:26;;;;;;;;;1.00;1.00;;;;;5.58;86.12;101622.09;5120259;27;8856;-63
2022/01/24 06:39:54;;;;;;;;;3.40;3.40;;;;;5.57;86.34;101630.94;5118435;27;8896;-63
2022/01/24 06:42:23;;;;;;;;;2.20;2.20;;;;;5.55;86.19;101624.81;5118220;27;8871;-63
2022/01/24 06:44:53;;;;;;;;;3.20;3.20;;;;;5.56;86.40;101629.19;5117225;27;8861;-63
2022/01/24 06:47:20;;;;;;;;;4.00;4.00;;;;;5.57;86.68;101630.06;5115871;27;8876;-63
2022/01/24 06:49:48;;;;;;;;;3.40;3.40;;;;;5.58;86.40;101622.09;5115584;27;8861;-63
2022/01/24 06:52:16;;;;;;;;;1.80;1.80;;;;;5.58;86.25;101635.31;5115653;27;9121;-64
2022/01/24 06:54:44;;;;;;;;;1.00;0.20;;;;;5.57;86.83;101630.06;5118596;27;8871;-62
2022/01/24 06:57:12;;;;;;;;;1.00;1.00;;;;;5.55;86.50;101631.91;5116298;27;8853;-63
2022/01/24 06:59:39;;;;;;;;;3.00;3.00;;;;;5.53;86.37;101633.72;5113842;27;9146;-63
2022/01/24 07:02:07;;;;;;;;;2.60;2.60;;;;;5.53;86.50;101631.09;5115186;27;8841;-64
2022/01/24 07:04:37;;;;;;;;;2.60;2.60;;;;;5.52;86.35;101637.25;5113970;27;8999;-63
2022/01/24 07:07:05;;;;;;;;;1.40;1.00;;;;;5.52;86.57;101642.53;5117768;27;8959;-62
2022/01/24 07:09:33;;;;;;;;;3.40;3.00;;;;;5.54;86.51;101651.31;5114915;27;8858;-63
2022/01/24 07:12:01;;;;;;;;;0.80;0.40;;;;;5.52;86.67;101648.72;5115103;27;8861;-62
2022/01/24 07:14:29;;;;;;;;;3.00;2.20;;;;;5.52;86.41;101648.72;5112277;27;8842;-61
2022/01/24 07:17:11;;;;;;;;;3.00;2.20;;;;;5.52;86.43;101646.06;5115789;27;8849;-63
2022/01/24 07:19:39;;;;;;;;;3.20;3.20;;;;;5.51;86.55;101641.69;5115837;27;8853;-61
2022/01/24 07:22:07;;;;;;;;;0.00;0.00;;;;;5.51;86.52;101649.63;5112774;27;8968;-61
2022/01/24 07:24:35;;;;;;;;;1.00;0.60;;;;;5.50;86.72;101649.66;5116841;27;9629;-62
2022/01/24 07:27:03;;;;;;;;;3.00;3.00;;;;;5.50;86.47;101644.38;5117420;27;8856;-62
2022/01/24 07:29:31;;;;;;;;;0.00;0.00;;;;;5.51;86.52;101646.09;5116955;27;8870;-63
2022/01/24 07:31:59;;;;;;;;;3.40;3.40;;;;;5.50;86.45;101655.81;5116444;27;8841;-63
2022/01/24 07:34:26;;;;;;;;;3.80;3.00;;;;;5.50;86.50;101653.19;5116234;27;8921;-62
2022/01/24 07:36:55;;;;;;;;;3.20;2.20;;;;;5.51;86.53;101664.59;5116390;27;8934;-64
2022/01/24 07:39:23;;;;;;;;;3.80;2.60;;;;;5.49;86.36;101654.09;5117719;27;8825;-61
2022/01/24 07:41:52;;;;;;;;;2.60;1.00;;;;;5.49;86.55;101663.78;5117362;27;8838;-62
2022/01/24 07:44:20;;;;;;;;;3.60;3.20;;;;;5.49;86.63;101669.94;5117531;27;8918;-63
2022/01/24 07:46:48;;;;;;;;;1.00;1.00;;;;;5.50;86.78;101673.44;5115856;27;8979;-63
2022/01/24 07:49:16;;;;;;;;;3.00;2.20;;;;;5.50;86.06;101676.09;5122557;27;8857;-63
2022/01/24 07:51:44;;;;;;;;;3.00;3.00;;;;;5.50;86.69;101676.09;5111525;27;8913;-61
2022/01/24 07:54:11;;;;;;;;;3.80;3.80;;;;;5.50;86.55;101676.97;5112791;27;9299;-63
2022/01/24 07:56:39;;;;;;;;;0.60;0.00;;;;;5.51;86.55;101685.72;5115999;27;8857;-62
2022/01/24 07:59:07;;;;;;;;;3.00;3.00;;;;;5.51;86.75;101676.03;5116977;27;8854;-63
2022/01/24 08:01:35;;;;;;;;;4.00;4.00;;;;;5.53;86.78;101686.56;5114662;27;8850;-63
2022/01/24 08:04:03;;;;;;;;;4.00;3.20;;;;;5.52;86.47;101685.69;5114200;27;8838;-63
2022/01/24 08:06:31;;;;;;;;;0.80;0.00;;;;;5.52;86.65;101684.81;5116722;27;9170;-63
2022/01/24 08:08:59;;;;;;;;;3.00;3.00;;;;;5.52;86.91;101688.34;5114691;27;9405;-63
2022/01/24 08:11:27;;;;;;;;;3.00;2.20;;;;;5.53;86.21;101692.69;5116466;27;9505;-62
2022/01/24 08:13:55;;;;;;;;;4.00;3.60;;;;;5.54;86.39;101691.78;5116152;27;8857;-63
2022/01/24 08:16:24;;;;;;;;;2.20;2.20;;;;;5.55;86.33;101684.75;5115831;27;8858;-63
2022/01/24 08:18:52;;;;;;;;;2.20;1.00;;;;;5.57;86.30;101693.47;5115170;27;8853;-62
2022/01/24 08:21:20;;;;;;;;;3.20;2.60;;;;;5.59;86.49;101686.34;5112340;27;8996;-61
2022/01/24 08:23:50;;;;;;;;;3.20;3.00;;;;;5.58;86.30;101684.63;5112833;27;8914;-63
2022/01/24 08:26:18;;;;;;;;;1.00;0.00;;;;;5.59;86.71;101681.06;5113423;27;8841;-63
2022/01/24 08:28:46;;;;;;;;;1.40;1.40;;;;;5.59;86.40;101683.72;5110587;27;9522;-61
2022/01/24 08:31:14;;;;;;;;;3.40;3.40;;;;;5.59;86.49;101678.44;5115240;27;8837;-63
2022/01/24 08:33:43;;;;;;;;;1.40;1.00;;;;;5.57;86.48;101682.91;5112936;27;8861;-63
2022/01/24 08:36:11;;;;;;;;;3.20;1.40;;;;;5.55;85.69;101684.75;5111501;27;8988;-62
2022/01/24 08:38:39;;;;;;;;;3.00;3.00;;;;;5.51;86.36;101685.72;5110840;27;8842;-63
2022/01/24 08:41:12;;;;;;;;;3.20;3.20;;;;;5.47;86.15;101684.13;5114086;27;8869;-63
2022/01/24 08:43:53;;;;;;;;;3.20;2.20;;;;;5.44;86.42;101681.53;5111080;27;9219;-63
2022/01/24 08:46:22;;;;;;;;;3.40;1.80;;;;;5.44;86.38;101678.91;5109264;27;9159;-61
2022/01/24 08:48:50;;;;;;;;;1.80;1.80;;;;;5.45;86.53;101678.00;5111427;27;8854;-63
2022/01/24 08:51:18;;;;;;;;;1.00;1.00;;;;;5.47;86.25;101673.53;5111963;27;8845;-63
2022/01/24 08:54:03;;;;;;;;;3.80;3.80;;;;;5.49;86.49;101669.94;5110983;27;8940;-62
2022/01/24 08:56:30;;;;;;;;;3.00;3.00;;;;;5.51;86.23;101675.16;5111035;27;8911;-63
2022/01/24 08:58:58;;;;;;;;;3.00;1.40;;;;;5.53;86.27;101670.72;5109080;27;8834;-63
2022/01/24 09:01:26;;;;;;;;;4.00;3.00;;;;;5.57;86.45;101677.63;5110761;27;8859;-63
2022/01/24 09:03:54;;;;;;;;;4.80;3.60;;;;;5.57;86.14;101682.91;5110881;27;8845;-63
2022/01/24 09:06:22;;;;;;;;;3.00;3.00;;;;;5.55;85.66;101679.44;5108192;27;9188;-63
2022/01/24 09:08:55;;;;;;;;;4.80;4.40;;;;;5.55;86.30;101682.09;5110574;27;8869;-64
2022/01/24 09:11:23;;;;;;;;;4.00;2.60;;;;;5.52;86.01;101676.88;5117937;27;8869;-64
2022/01/24 09:13:51;;;;;;;;;0.60;0.60;;;;;5.50;85.94;101684.88;5116621;27;8882;-63
2022/01/24 09:16:19;;;;;;;;;5.60;4.00;;;;;5.48;86.01;101683.19;5119353;27;8842;-63
2022/01/24 09:18:47;;;;;;;;;1.00;1.00;;;;;5.46;86.36;101687.66;5118468;27;9122;-63
2022/01/24 09:21:15;;;;;;;;;4.00;3.00;;;;;5.44;86.00;101686.84;5117953;27;9198;-63
2022/01/24 09:23:44;;;;;;;;;1.00;1.00;;;;;5.44;86.16;101686.84;5115822;27;8892;-64
2022/01/24 09:26:11;;;;;;;;;1.40;1.00;;;;;5.43;86.07;101685.97;5117759;27;9178;-63
2022/01/24 09:28:39;;;;;;;;;1.00;1.00;;;;;5.45;86.14;101685.91;5118121;27;8938;-62
2022/01/24 09:31:07;;;;;;;;;4.00;3.00;;;;;5.47;85.99;101686.75;5116498;27;9549;-63
2022/01/24 09:33:35;;;;;;;;;1.00;1.00;;;;;5.52;86.11;101685.69;5116556;27;8850;-64
2022/01/24 09:36:03;;;;;;;;;2.20;2.20;;;;;5.57;86.05;101696.13;5116309;27;8860;-63
2022/01/24 09:38:32;;;;;;;;;4.00;3.00;;;;;5.61;86.16;101688.03;5119754;27;8884;-63
2022/01/24 09:41:00;;;;;;;;;0.80;0.80;;;;;5.65;85.95;101691.44;5114626;27;8896;-63
2022/01/24 09:43:27;;;;;;;;;1.00;1.00;;;;;5.67;85.85;101690.50;5118075;27;8858;-63
2022/01/24 09:45:55;;;;;;;;;4.00;3.80;;;;;5.69;86.16;101696.59;5116239;27;8846;-62
2022/01/24 09:48:23;;;;;;;;;3.00;3.00;;;;;5.72;85.38;101693.00;5112985;27;8871;-63
2022/01/24 09:50:52;;;;;;;;;5.00;3.60;;;;;5.69;85.53;101690.47;5111939;27;9206;-63
2022/01/24 09:53:20;;;;;;;;;1.40;1.40;;;;;5.64;85.60;101697.66;5112946;27;8850;-63
2022/01/24 09:55:48;;;;;;;;;3.20;2.60;;;;;5.63;85.93;101693.28;5112984;27;8854;-62
2022/01/24 09:58:16;;;;;;;;;5.80;5.80;;;;;5.62;85.69;101689.75;5109258;27;9249;-63
2022/01/24 10:00:44;;;;;;;;;6.60;6.20;;;;;5.64;85.77;101684.44;5114583;27;9172;-63
2022/01/24 10:03:12;;;;;;;;;3.80;3.00;;;;;5.65;85.65;101683.53;5115564;27;8865;-63
2022/01/24 10:06:00;;;;;;;;;1.00;1.00;;;;;5.64;85.58;101682.69;5110741;27;9104;-63
2022/01/24 10:08:30;;;;;;;;;3.00;3.00;;;;;5.63;85.58;101678.28;5114273;27;8853;-63
2022/01/24 10:10:58;;;;;;;;;3.80;3.80;;;;;5.63;85.90;101688.84;5115171;27;9165;-63
2022/01/24 10:16:29;;;;;;;;;3.00;1.00;;;;;5.65;85.67;101705.53;5115644;27;8933;-63
2022/01/24 10:18:57;;;;;;;;;3.20;3.20;;;;;5.65;85.70;101700.25;5111477;27;8845;-62
2022/01/24 10:21:45;;;;;;;;;5.60;4.00;;;;;5.66;85.72;101703.75;5115796;27;9275;-63
2022/01/24 10:24:13;;;;;;;;;3.20;3.00;;;;;5.65;85.58;101694.09;5113264;27;9495;-62
2022/01/24 10:26:40;;;;;;;;;3.00;2.20;;;;;5.65;85.26;101691.44;5112909;27;9000;-63
2022/01/24 10:29:08;;;;;;;;;3.60;3.60;;;;;5.69;85.38;101701.03;5111245;27;8845;-60
2022/01/24 10:31:36;;;;;;;;;4.00;4.00;;;;;5.70;85.63;101687.75;5108528;27;9568;-63
2022/01/24 10:34:06;;;;;;;;;5.40;4.40;;;;;5.69;85.50;101686.00;5110324;27;9556;-63
2022/01/24 10:36:34;;;;;;;;;5.20;5.20;;;;;5.69;85.82;101683.38;5117224;27;8876;-63
2022/01/24 10:39:05;;;;;;;;;3.20;3.20;;;;;5.67;85.53;101679.94;5113414;27;9227;-63
2022/01/24 10:41:51;;;;;;;;;6.00;4.00;;;;;5.69;85.59;101687.81;5110224;27;8878;-63
2022/01/24 10:44:19;;;;;;;;;3.80;3.40;;;;;5.73;85.31;101682.38;5114559;27;8846;-61
2022/01/24 10:46:59;;;;;;;;;0.80;0.80;;;;;5.76;85.59;101679.63;5113363;27;9639;-63
2022/01/24 10:49:31;;;;;;;;;2.60;2.60;;;;;5.78;85.54;101679.59;5114497;27;8992;-63
2022/01/24 10:51:59;;;;;;;;;3.80;3.00;;;;;5.79;85.70;101679.56;5114112;27;8902;-64
2022/01/24 10:54:26;;;;;;;;;3.80;3.40;;;;;5.79;85.49;101673.38;5112085;27;8857;-63
2022/01/24 10:56:54;;;;;;;;;3.00;3.00;;;;;5.80;84.99;101675.13;5113817;27;9008;-62
2022/01/24 10:59:22;;;;;;;;;4.40;4.40;;;;;5.77;84.87;101675.22;5112861;27;8845;-63
2022/01/24 11:01:50;;;;;;;;;6.00;5.20;;;;;5.74;84.95;101667.38;5114831;27;8864;-63
2022/01/24 11:04:18;;;;;;;;;2.60;2.60;;;;;5.74;85.11;101665.59;5109761;27;8921;-62
2022/01/24 11:06:47;;;;;;;;;3.60;3.20;;;;;5.77;85.21;101668.13;5110208;27;8942;-63
2022/01/24 11:09:15;;;;;;;;;3.00;1.00;;;;;5.76;85.52;101653.19;5110967;27;9637;-63
2022/01/24 11:11:44;;;;;;;;;5.60;3.40;;;;;5.75;85.15;101661.16;5109952;27;8857;-63
2022/01/24 11:14:16;;;;;;;;;3.20;3.00;;;;;5.73;85.06;101660.34;5103481;27;8842;-63
2022/01/24 11:16:44;;;;;;;;;3.80;3.40;;;;;5.72;85.30;101651.59;5107856;27;8869;-63
2022/01/24 11:19:16;;;;;;;;;0.80;0.00;;;;;5.72;85.30;101650.72;5108384;27;8866;-63
2022/01/24 11:21:44;;;;;;;;;1.00;1.00;;;;;5.73;85.19;101636.56;5107727;27;9145;-64
2022/01/24 11:24:17;;;;;;;;;3.00;3.00;;;;;5.72;85.26;101641.00;5109076;27;8841;-63
2022/01/24 11:26:48;;;;;;;;;4.00;2.60;;;;;5.70;85.15;101636.69;5108515;27;8846;-63
2022/01/24 11:29:19;;;;;;;;;5.80;4.40;;;;;5.71;84.72;101630.47;5109270;27;8842;-63
2022/01/24 11:31:47;;;;;;;;;3.00;2.20;;;;;5.73;85.07;101633.94;5106971;27;8933;-63
2022/01/24 11:34:15;;;;;;;;;3.20;3.20;;;;;5.74;84.99;101630.38;5106540;27;8957;-63
2022/01/24 11:36:43;;;;;;;;;4.00;3.00;;;;;5.74;84.53;101631.25;5107729;27;8858;-63
2022/01/24 11:39:11;;;;;;;;;4.00;4.00;;;;;5.74;85.05;101633.00;5106681;27;8968;-61
2022/01/24 11:41:43;;;;;;;;;4.40;4.00;;;;;5.73;85.30;101634.81;5105176;27;9237;-63
2022/01/24 11:44:11;;;;;;;;;3.80;3.20;;;;;5.73;84.86;101636.56;5106796;27;8846;-62
2022/01/24 11:46:44;;;;;;;;;4.00;3.60;;;;;5.72;84.80;101635.72;5110786;27;9626;-62
2022/01/24 11:49:12;;;;;;;;;2.60;1.80;;;;;5.72;84.92;101633.09;5110231;27;8849;-63
2022/01/24 11:51:40;;;;;;;;;7.00;4.80;;;;;5.74;85.09;101635.66;5105184;27;9523;-63
2022/01/24 11:54:08;;;;;;;;;4.00;3.60;;;;;5.73;84.95;101634.81;5110848;27;8865;-61
2022/01/24 11:56:37;;;;;;;;;3.60;3.60;;;;;5.73;84.95;101628.66;5109618;27;8868;-61
2022/01/24 11:59:06;;;;;;;;;4.40;4.40;;;;;5.76;85.39;101628.56;5111271;27;8853;-61
2022/01/24 12:01:38;;;;;;;;;4.00;4.00;;;;;5.76;84.89;101620.63;5111117;27;9176;-63
2022/01/24 12:04:09;;;;;;;;;3.40;3.00;;;;;5.78;85.06;101624.09;5109967;27;8853;-61
2022/01/24 12:06:37;;;;;;;;;5.40;4.40;;;;;5.80;85.41;101615.22;5110928;27;8849;-62
2022/01/24 12:09:17;;;;;;;;;3.80;3.60;;;;;5.83;84.83;101622.16;5108688;27;9239;-62
2022/01/24 12:11:46;;;;;;;;;4.00;4.00;;;;;5.84;84.92;101619.47;5107941;27;8841;-62
2022/01/24 12:14:34;;;;;;;;;4.00;4.00;;;;;5.87;85.00;101618.50;5121377;27;9154;-63
2022/01/24 12:17:01;;;;;;;;;1.00;1.00;;;;;5.90;84.81;101613.13;5106640;27;8845;-62
2022/01/24 12:19:31;;;;;;;;;3.40;3.00;;;;;5.93;85.00;101613.03;5114725;27;9258;-63
2022/01/24 12:21:59;;;;;;;;;6.40;6.00;;;;;5.94;84.34;101609.47;5114563;27;9146;-62
2022/01/24 12:24:27;;;;;;;;;4.00;3.00;;;;;5.96;85.31;101612.91;5116693;27;8969;-61
2022/01/24 12:26:55;;;;;;;;;1.00;1.00;;;;;5.97;84.55;101609.34;5118344;27;8841;-63
2022/01/24 12:29:24;;;;;;;;;4.00;4.00;;;;;5.95;84.39;101605.91;5116608;27;9235;-63
2022/01/24 12:31:52;;;;;;;;;3.60;3.20;;;;;5.92;84.36;101604.22;5111666;27;8841;-62
2022/01/24 12:34:20;;;;;;;;;1.00;1.00;;;;;5.89;84.46;101614.03;5109560;27;8881;-62
2022/01/24 12:36:48;;;;;;;;;4.40;4.40;;;;;5.89;84.21;101617.56;5115333;27;8867;-62
2022/01/24 12:39:16;;;;;;;;;3.20;3.20;;;;;5.84;84.28;101614.19;5112829;27;8838;-63
2022/01/24 12:41:47;;;;;;;;;5.20;3.80;;;;;5.81;84.58;101608.16;5111602;27;8996;-62
2022/01/24 12:46:18;;;;;;;;;3.40;3.20;;;;;5.79;84.34;101617.88;5112539;27;8846;-63
2022/01/24 12:47:05;;;;;;;;;3.00;3.00;;;;;5.79;84.39;101612.59;5115055;27;8849;-63
2022/01/24 12:49:33;;;;;;;;;4.00;4.00;;;;;5.78;84.53;101613.50;5114043;27;8841;-62
2022/01/24 12:52:02;;;;;;;;;6.40;4.80;;;;;5.79;84.51;101612.59;5117688;27;8891;-63